sensor_id;sensor_type;location;lat;lon;timestamp;P1;durP1;ratioP1;P2;durP2;ratioP2
48263;SDS011;34086;51.076;13.722;2023-02-01T00:00:42;12.27;;;6.68;;
48263;SDS011;34086;51.076;13.722;2023-02-01T00:01:43;12.98;;;5.70;;
48263;SDS011;34086;51.076;13.722;2023-02-01T00:02:44;12.82;;;5.63;;
48263;SDS011;34086;51.076;13.722;2023-02-01T00:03:45;14.70;;;5.72;;
48263;SDS011;34086;51.076;13.722;2023-02-01T00:04:45;12.82;;;6.20;;
48263;SDS011;34086;51.076;13.722;2023-02-01T00:05:54;10.65;;;5.95;;
48263;SDS011;34086;51.076;13.722;2023-02-01T00:06:56;14.55;;;6.50;;
48263;SDS011;34086;51.076;13.722;2023-02-01T00:07:57;12.85;;;5.82;;
48263;SDS011;34086;51.076;13.722;2023-02-01T00:08:57;12.05;;;5.75;;
48263;SDS011;34086;51.076;13.722;2023-02-01T00:09:58;14.20;;;6.00;;
48263;SDS011;34086;51.076;13.722;2023-02-01T00:11:05;11.85;;;5.47;;
48263;SDS011;34086;51.076;13.722;2023-02-01T00:12:08;14.60;;;6.05;;
48263;SDS011;34086;51.076;13.722;2023-02-01T00:13:09;14.43;;;5.95;;
48263;SDS011;34086;51.076;13.722;2023-02-01T00:14:10;13.43;;;5.93;;
48263;SDS011;34086;51.076;13.722;2023-02-01T00:15:10;11.73;;;5.68;;
48263;SDS011;34086;51.076;13.722;2023-02-01T00:16:15;12.55;;;5.55;;
48263;SDS011;34086;51.076;13.722;2023-02-01T00:17:17;15.80;;;5.60;;
48263;SDS011;34086;51.076;13.722;2023-02-01T00:18:18;16.63;;;6.00;;
48263;SDS011;34086;51.076;13.722;2023-02-01T00:19:18;12.30;;;5.32;;
48263;SDS011;34086;51.076;13.722;2023-02-01T00:20:19;10.65;;;5.45;;
48263;SDS011;34086;51.076;13.722;2023-02-01T00:21:20;11.93;;;5.88;;
48263;SDS011;34086;51.076;13.722;2023-02-01T00:22:21;13.65;;;5.20;;
48263;SDS011;34086;51.076;13.722;2023-02-01T00:23:21;15.90;;;5.85;;
48263;SDS011;34086;51.076;13.722;2023-02-01T00:24:22;14.45;;;5.80;;
48263;SDS011;34086;51.076;13.722;2023-02-01T00:25:22;13.82;;;6.07;;
48263;SDS011;34086;51.076;13.722;2023-02-01T00:26:36;11.70;;;5.75;;
48263;SDS011;34086;51.076;13.722;2023-02-01T00:27:38;15.25;;;6.20;;
48263;SDS011;34086;51.076;13.722;2023-02-01T00:28:39;13.15;;;5.60;;
48263;SDS011;34086;51.076;13.722;2023-02-01T00:29:39;12.10;;;5.63;;
48263;SDS011;34086;51.076;13.722;2023-02-01T00:30:40;11.70;;;5.57;;
48263;SDS011;34086;51.076;13.722;2023-02-01T00:31:40;14.63;;;5.65;;
48263;SDS011;34086;51.076;13.722;2023-02-01T00:32:42;14.30;;;6.00;;
48263;SDS011;34086;51.076;13.722;2023-02-01T00:33:43;11.93;;;5.60;;
48263;SDS011;34086;51.076;13.722;2023-02-01T00:34:47;12.32;;;5.60;;
48263;SDS011;34086;51.076;13.722;2023-02-01T00:35:47;12.43;;;5.88;;
48263;SDS011;34086;51.076;13.722;2023-02-01T00:36:48;14.68;;;6.00;;
48263;SDS011;34086;51.076;13.722;2023-02-01T00:37:49;15.30;;;5.95;;
48263;SDS011;34086;51.076;13.722;2023-02-01T00:38:49;15.60;;;5.80;;
48263;SDS011;34086;51.076;13.722;2023-02-01T00:39:50;13.07;;;5.93;;
48263;SDS011;34086;51.076;13.722;2023-02-01T00:40:50;13.30;;;5.90;;
48263;SDS011;34086;51.076;13.722;2023-02-01T00:41:51;13.30;;;6.03;;
48263;SDS011;34086;51.076;13.722;2023-02-01T00:42:52;12.57;;;5.80;;
48263;SDS011;34086;51.076;13.722;2023-02-01T00:43:53;11.88;;;5.95;;
48263;SDS011;34086;51.076;13.722;2023-02-01T00:44:54;17.48;;;5.72;;
48263;SDS011;34086;51.076;13.722;2023-02-01T00:45:54;14.40;;;6.20;;
48263;SDS011;34086;51.076;13.722;2023-02-01T00:46:55;13.10;;;5.78;;
48263;SDS011;34086;51.076;13.722;2023-02-01T00:47:55;12.98;;;5.75;;
48263;SDS011;34086;51.076;13.722;2023-02-01T00:48:56;14.85;;;6.20;;
48263;SDS011;34086;51.076;13.722;2023-02-01T00:49:56;14.23;;;6.28;;
48263;SDS011;34086;51.076;13.722;2023-02-01T00:51:00;12.65;;;5.90;;
48263;SDS011;34086;51.076;13.722;2023-02-01T00:52:03;11.63;;;5.63;;
48263;SDS011;34086;51.076;13.722;2023-02-01T00:53:03;14.38;;;5.88;;
48263;SDS011;34086;51.076;13.722;2023-02-01T00:54:04;10.85;;;5.75;;
48263;SDS011;34086;51.076;13.722;2023-02-01T00:55:04;12.98;;;5.82;;
48263;SDS011;34086;51.076;13.722;2023-02-01T00:56:05;13.70;;;5.65;;
48263;SDS011;34086;51.076;13.722;2023-02-01T00:57:06;14.75;;;6.03;;
48263;SDS011;34086;51.076;13.722;2023-02-01T00:58:07;11.02;;;5.55;;
48263;SDS011;34086;51.076;13.722;2023-02-01T00:59:12;13.05;;;5.78;;
48263;SDS011;34086;51.076;13.722;2023-02-01T01:00:13;14.60;;;5.80;;
48263;SDS011;34086;51.076;13.722;2023-02-01T01:02:14;16.02;;;6.18;;
48263;SDS011;34086;51.076;13.722;2023-02-01T01:03:15;14.32;;;5.40;;
48263;SDS011;34086;51.076;13.722;2023-02-01T01:04:18;12.40;;;5.30;;
48263;SDS011;34086;51.076;13.722;2023-02-01T01:05:18;14.30;;;5.55;;
48263;SDS011;34086;51.076;13.722;2023-02-01T01:06:20;13.90;;;5.18;;
48263;SDS011;34086;51.076;13.722;2023-02-01T01:07:25;12.27;;;4.90;;
48263;SDS011;34086;51.076;13.722;2023-02-01T01:08:27;14.32;;;5.07;;
48263;SDS011;34086;51.076;13.722;2023-02-01T01:09:28;12.00;;;5.50;;
48263;SDS011;34086;51.076;13.722;2023-02-01T01:10:28;12.85;;;5.32;;
48263;SDS011;34086;51.076;13.722;2023-02-01T01:11:30;16.40;;;5.82;;
48263;SDS011;34086;51.076;13.722;2023-02-01T01:12:32;14.07;;;5.68;;
48263;SDS011;34086;51.076;13.722;2023-02-01T01:13:33;16.45;;;5.18;;
48263;SDS011;34086;51.076;13.722;2023-02-01T01:14:34;11.57;;;5.75;;
48263;SDS011;34086;51.076;13.722;2023-02-01T01:15:35;12.93;;;5.28;;
48263;SDS011;34086;51.076;13.722;2023-02-01T01:16:37;16.08;;;5.13;;
48263;SDS011;34086;51.076;13.722;2023-02-01T01:17:38;12.27;;;5.00;;
48263;SDS011;34086;51.076;13.722;2023-02-01T01:18:39;15.73;;;5.00;;
48263;SDS011;34086;51.076;13.722;2023-02-01T01:19:40;13.35;;;4.82;;
48263;SDS011;34086;51.076;13.722;2023-02-01T01:20:41;12.80;;;4.80;;
48263;SDS011;34086;51.076;13.722;2023-02-01T01:21:41;13.82;;;4.88;;
48263;SDS011;34086;51.076;13.722;2023-02-01T01:22:42;11.90;;;4.80;;
48263;SDS011;34086;51.076;13.722;2023-02-01T01:23:43;13.32;;;4.93;;
48263;SDS011;34086;51.076;13.722;2023-02-01T01:24:44;11.18;;;4.72;;
48263;SDS011;34086;51.076;13.722;2023-02-01T01:25:44;15.95;;;5.40;;
48263;SDS011;34086;51.076;13.722;2023-02-01T01:26:45;11.48;;;4.70;;
48263;SDS011;34086;51.076;13.722;2023-02-01T01:27:45;13.55;;;4.90;;
48263;SDS011;34086;51.076;13.722;2023-02-01T01:28:46;12.07;;;4.75;;
48263;SDS011;34086;51.076;13.722;2023-02-01T01:29:47;14.07;;;4.93;;
48263;SDS011;34086;51.076;13.722;2023-02-01T01:30:48;12.00;;;4.53;;
48263;SDS011;34086;51.076;13.722;2023-02-01T01:31:48;12.57;;;4.72;;
48263;SDS011;34086;51.076;13.722;2023-02-01T01:32:49;14.15;;;4.68;;
48263;SDS011;34086;51.076;13.722;2023-02-01T01:33:53;14.38;;;4.82;;
48263;SDS011;34086;51.076;13.722;2023-02-01T01:34:55;11.75;;;4.70;;
48263;SDS011;34086;51.076;13.722;2023-02-01T01:35:56;9.50;;;4.28;;
48263;SDS011;34086;51.076;13.722;2023-02-01T01:36:56;16.00;;;5.13;;
48263;SDS011;34086;51.076;13.722;2023-02-01T01:37:57;12.52;;;4.50;;
48263;SDS011;34086;51.076;13.722;2023-02-01T01:38:58;11.88;;;4.13;;
48263;SDS011;34086;51.076;13.722;2023-02-01T01:39:59;13.15;;;4.47;;
48263;SDS011;34086;51.076;13.722;2023-02-01T01:40:59;12.20;;;4.45;;
48263;SDS011;34086;51.076;13.722;2023-02-01T01:42:01;14.02;;;4.43;;
48263;SDS011;34086;51.076;13.722;2023-02-01T01:43:02;10.85;;;4.35;;
48263;SDS011;34086;51.076;13.722;2023-02-01T01:44:06;13.25;;;4.22;;
48263;SDS011;34086;51.076;13.722;2023-02-01T01:45:30;13.18;;;4.47;;
48263;SDS011;34086;51.076;13.722;2023-02-01T01:46:36;13.60;;;4.60;;
48263;SDS011;34086;51.076;13.722;2023-02-01T01:47:40;14.35;;;4.22;;
48263;SDS011;34086;51.076;13.722;2023-02-01T01:48:48;12.00;;;4.10;;
48263;SDS011;34086;51.076;13.722;2023-02-01T01:49:53;12.32;;;3.95;;
48263;SDS011;34086;51.076;13.722;2023-02-01T01:51:02;10.00;;;4.10;;
48263;SDS011;34086;51.076;13.722;2023-02-01T01:52:08;11.15;;;4.50;;
48263;SDS011;34086;51.076;13.722;2023-02-01T01:53:11;11.05;;;3.97;;
48263;SDS011;34086;51.076;13.722;2023-02-01T01:55:47;12.85;;;4.40;;
48263;SDS011;34086;51.076;13.722;2023-02-01T01:56:50;14.88;;;4.32;;
48263;SDS011;34086;51.076;13.722;2023-02-01T01:57:56;12.57;;;4.28;;
48263;SDS011;34086;51.076;13.722;2023-02-01T01:59:00;13.20;;;4.35;;
48263;SDS011;34086;51.076;13.722;2023-02-01T02:00:10;19.27;;;4.78;;
48263;SDS011;34086;51.076;13.722;2023-02-01T02:01:16;14.20;;;4.53;;
48263;SDS011;34086;51.076;13.722;2023-02-01T02:02:17;13.18;;;4.15;;
48263;SDS011;34086;51.076;13.722;2023-02-01T02:03:19;14.80;;;4.57;;
48263;SDS011;34086;51.076;13.722;2023-02-01T02:04:23;14.35;;;4.55;;
48263;SDS011;34086;51.076;13.722;2023-02-01T02:05:25;11.90;;;4.47;;
48263;SDS011;34086;51.076;13.722;2023-02-01T02:07:41;12.57;;;3.92;;
48263;SDS011;34086;51.076;13.722;2023-02-01T02:08:46;12.82;;;4.35;;
48263;SDS011;34086;51.076;13.722;2023-02-01T02:09:46;15.57;;;4.15;;
48263;SDS011;34086;51.076;13.722;2023-02-01T02:10:48;10.95;;;4.10;;
48263;SDS011;34086;51.076;13.722;2023-02-01T02:12:01;15.05;;;4.13;;
48263;SDS011;34086;51.076;13.722;2023-02-01T02:13:01;14.57;;;4.20;;
48263;SDS011;34086;51.076;13.722;2023-02-01T02:14:02;12.75;;;4.10;;
48263;SDS011;34086;51.076;13.722;2023-02-01T02:15:06;13.55;;;3.92;;
48263;SDS011;34086;51.076;13.722;2023-02-01T02:16:18;15.43;;;4.30;;
48263;SDS011;34086;51.076;13.722;2023-02-01T02:17:31;13.15;;;4.15;;
48263;SDS011;34086;51.076;13.722;2023-02-01T02:18:46;15.00;;;4.22;;
48263;SDS011;34086;51.076;13.722;2023-02-01T02:20:12;14.15;;;3.97;;
48263;SDS011;34086;51.076;13.722;2023-02-01T02:21:41;14.85;;;4.70;;
48263;SDS011;34086;51.076;13.722;2023-02-01T02:24:16;11.65;;;4.20;;
48263;SDS011;34086;51.076;13.722;2023-02-01T02:25:52;12.27;;;3.92;;
48263;SDS011;34086;51.076;13.722;2023-02-01T02:29:48;18.02;;;4.32;;
48263;SDS011;34086;51.076;13.722;2023-02-01T02:31:24;13.00;;;4.15;;
48263;SDS011;34086;51.076;13.722;2023-02-01T02:32:47;13.50;;;4.18;;
48263;SDS011;34086;51.076;13.722;2023-02-01T02:34:13;11.55;;;4.30;;
48263;SDS011;34086;51.076;13.722;2023-02-01T02:35:30;12.35;;;3.80;;
48263;SDS011;34086;51.076;13.722;2023-02-01T02:36:54;12.98;;;4.15;;
48263;SDS011;34086;51.076;13.722;2023-02-01T02:38:14;13.27;;;4.32;;
48263;SDS011;34086;51.076;13.722;2023-02-01T02:39:50;13.02;;;4.28;;
48263;SDS011;34086;51.076;13.722;2023-02-01T02:41:13;14.80;;;3.90;;
48263;SDS011;34086;51.076;13.722;2023-02-01T02:42:41;11.88;;;4.00;;
48263;SDS011;34086;51.076;13.722;2023-02-01T02:44:21;10.65;;;4.03;;
48263;SDS011;34086;51.076;13.722;2023-02-01T02:46:07;12.25;;;4.00;;
48263;SDS011;34086;51.076;13.722;2023-02-01T02:47:44;18.02;;;4.38;;
48263;SDS011;34086;51.076;13.722;2023-02-01T02:48:59;13.80;;;4.07;;
48263;SDS011;34086;51.076;13.722;2023-02-01T02:51:56;12.52;;;4.40;;
48263;SDS011;34086;51.076;13.722;2023-02-01T02:53:24;14.43;;;4.20;;
48263;SDS011;34086;51.076;13.722;2023-02-01T02:54:55;15.65;;;4.25;;
48263;SDS011;34086;51.076;13.722;2023-02-01T02:55:57;16.50;;;4.13;;
48263;SDS011;34086;51.076;13.722;2023-02-01T02:57:31;16.27;;;4.22;;
48263;SDS011;34086;51.076;13.722;2023-02-01T02:58:56;14.07;;;3.85;;
48263;SDS011;34086;51.076;13.722;2023-02-01T03:01:37;13.63;;;4.25;;
48263;SDS011;34086;51.076;13.722;2023-02-01T03:02:58;11.40;;;3.75;;
48263;SDS011;34086;51.076;13.722;2023-02-01T03:04:19;16.38;;;4.18;;
48263;SDS011;34086;51.076;13.722;2023-02-01T03:05:22;12.90;;;4.07;;
48263;SDS011;34086;51.076;13.722;2023-02-01T03:06:24;12.23;;;4.18;;
48263;SDS011;34086;51.076;13.722;2023-02-01T03:08:44;14.60;;;3.90;;
48263;SDS011;34086;51.076;13.722;2023-02-01T03:09:46;14.77;;;4.03;;
48263;SDS011;34086;51.076;13.722;2023-02-01T03:12:04;11.88;;;3.88;;
48263;SDS011;34086;51.076;13.722;2023-02-01T03:14:52;13.57;;;3.97;;
48263;SDS011;34086;51.076;13.722;2023-02-01T03:15:59;12.75;;;4.10;;
48263;SDS011;34086;51.076;13.722;2023-02-01T03:17:17;14.70;;;4.00;;
48263;SDS011;34086;51.076;13.722;2023-02-01T03:18:30;14.77;;;4.07;;
48263;SDS011;34086;51.076;13.722;2023-02-01T03:19:51;14.32;;;4.30;;
48263;SDS011;34086;51.076;13.722;2023-02-01T03:20:54;16.83;;;4.63;;
48263;SDS011;34086;51.076;13.722;2023-02-01T03:22:01;13.10;;;4.00;;
48263;SDS011;34086;51.076;13.722;2023-02-01T03:23:05;14.70;;;4.35;;
48263;SDS011;34086;51.076;13.722;2023-02-01T03:24:09;14.20;;;4.28;;
48263;SDS011;34086;51.076;13.722;2023-02-01T03:25:20;15.65;;;4.20;;
48263;SDS011;34086;51.076;13.722;2023-02-01T03:26:25;16.83;;;4.18;;
48263;SDS011;34086;51.076;13.722;2023-02-01T03:27:30;17.17;;;4.30;;
48263;SDS011;34086;51.076;13.722;2023-02-01T03:28:38;13.30;;;3.95;;
48263;SDS011;34086;51.076;13.722;2023-02-01T03:29:57;16.73;;;4.38;;
48263;SDS011;34086;51.076;13.722;2023-02-01T03:31:03;12.55;;;3.90;;
48263;SDS011;34086;51.076;13.722;2023-02-01T03:32:04;12.82;;;4.00;;
48263;SDS011;34086;51.076;13.722;2023-02-01T03:33:06;24.98;;;9.55;;
48263;SDS011;34086;51.076;13.722;2023-02-01T03:34:14;12.30;;;4.18;;
48263;SDS011;34086;51.076;13.722;2023-02-01T03:35:16;14.98;;;4.40;;
48263;SDS011;34086;51.076;13.722;2023-02-01T03:36:24;14.85;;;4.30;;
48263;SDS011;34086;51.076;13.722;2023-02-01T03:37:31;14.88;;;4.25;;
48263;SDS011;34086;51.076;13.722;2023-02-01T03:38:33;13.00;;;4.10;;
48263;SDS011;34086;51.076;13.722;2023-02-01T03:39:59;14.60;;;3.92;;
48263;SDS011;34086;51.076;13.722;2023-02-01T03:41:09;15.05;;;4.18;;
48263;SDS011;34086;51.076;13.722;2023-02-01T03:42:28;15.23;;;4.10;;
48263;SDS011;34086;51.076;13.722;2023-02-01T03:43:36;18.65;;;4.88;;
48263;SDS011;34086;51.076;13.722;2023-02-01T03:45:04;15.80;;;4.30;;
48263;SDS011;34086;51.076;13.722;2023-02-01T03:46:12;16.17;;;4.25;;
48263;SDS011;34086;51.076;13.722;2023-02-01T03:47:22;15.43;;;4.50;;
48263;SDS011;34086;51.076;13.722;2023-02-01T03:48:25;13.02;;;4.13;;
48263;SDS011;34086;51.076;13.722;2023-02-01T03:49:35;17.33;;;4.60;;
48263;SDS011;34086;51.076;13.722;2023-02-01T03:50:42;14.10;;;3.92;;
48263;SDS011;34086;51.076;13.722;2023-02-01T03:51:46;13.90;;;4.22;;
48263;SDS011;34086;51.076;13.722;2023-02-01T03:53:23;11.57;;;4.13;;
48263;SDS011;34086;51.076;13.722;2023-02-01T03:54:20;12.45;;;4.07;;
48263;SDS011;34086;51.076;13.722;2023-02-01T03:55:22;13.13;;;3.88;;
48263;SDS011;34086;51.076;13.722;2023-02-01T03:56:25;16.25;;;4.50;;
48263;SDS011;34086;51.076;13.722;2023-02-01T03:57:32;15.55;;;4.20;;
48263;SDS011;34086;51.076;13.722;2023-02-01T03:58:37;11.70;;;3.75;;
48263;SDS011;34086;51.076;13.722;2023-02-01T03:59:41;13.13;;;4.10;;
48263;SDS011;34086;51.076;13.722;2023-02-01T04:00:47;12.15;;;4.15;;
48263;SDS011;34086;51.076;13.722;2023-02-01T04:01:54;13.85;;;4.50;;
48263;SDS011;34086;51.076;13.722;2023-02-01T04:02:54;15.50;;;4.43;;
48263;SDS011;34086;51.076;13.722;2023-02-01T04:03:55;11.88;;;4.38;;
48263;SDS011;34086;51.076;13.722;2023-02-01T04:04:57;15.77;;;4.13;;
48263;SDS011;34086;51.076;13.722;2023-02-01T04:05:58;12.60;;;4.20;;
48263;SDS011;34086;51.076;13.722;2023-02-01T04:07:01;15.77;;;4.60;;
48263;SDS011;34086;51.076;13.722;2023-02-01T04:08:02;13.70;;;4.38;;
48263;SDS011;34086;51.076;13.722;2023-02-01T04:09:03;11.57;;;4.20;;
48263;SDS011;34086;51.076;13.722;2023-02-01T04:10:04;14.20;;;4.10;;
48263;SDS011;34086;51.076;13.722;2023-02-01T04:11:05;13.70;;;4.05;;
48263;SDS011;34086;51.076;13.722;2023-02-01T04:12:05;16.23;;;4.15;;
48263;SDS011;34086;51.076;13.722;2023-02-01T04:13:06;11.88;;;3.75;;
48263;SDS011;34086;51.076;13.722;2023-02-01T04:14:07;13.05;;;3.97;;
48263;SDS011;34086;51.076;13.722;2023-02-01T04:15:08;15.52;;;4.00;;
48263;SDS011;34086;51.076;13.722;2023-02-01T04:16:09;15.77;;;4.07;;
48263;SDS011;34086;51.076;13.722;2023-02-01T04:17:10;14.82;;;4.30;;
48263;SDS011;34086;51.076;13.722;2023-02-01T04:18:10;18.25;;;4.47;;
48263;SDS011;34086;51.076;13.722;2023-02-01T04:19:11;16.70;;;4.55;;
48263;SDS011;34086;51.076;13.722;2023-02-01T04:20:11;13.40;;;4.10;;
48263;SDS011;34086;51.076;13.722;2023-02-01T04:21:12;13.60;;;4.20;;
48263;SDS011;34086;51.076;13.722;2023-02-01T04:22:12;11.50;;;3.83;;
48263;SDS011;34086;51.076;13.722;2023-02-01T04:23:13;12.43;;;4.13;;
48263;SDS011;34086;51.076;13.722;2023-02-01T04:24:15;15.43;;;4.22;;
48263;SDS011;34086;51.076;13.722;2023-02-01T04:25:16;13.07;;;4.50;;
48263;SDS011;34086;51.076;13.722;2023-02-01T04:26:20;17.80;;;4.10;;
48263;SDS011;34086;51.076;13.722;2023-02-01T04:27:21;17.42;;;4.47;;
48263;SDS011;34086;51.076;13.722;2023-02-01T04:28:22;14.93;;;3.90;;
48263;SDS011;34086;51.076;13.722;2023-02-01T04:29:22;12.68;;;3.70;;
48263;SDS011;34086;51.076;13.722;2023-02-01T04:30:23;18.10;;;4.47;;
48263;SDS011;34086;51.076;13.722;2023-02-01T04:31:24;16.23;;;4.40;;
48263;SDS011;34086;51.076;13.722;2023-02-01T04:32:27;11.52;;;3.75;;
48263;SDS011;34086;51.076;13.722;2023-02-01T04:33:28;13.55;;;4.20;;
48263;SDS011;34086;51.076;13.722;2023-02-01T04:34:29;13.07;;;4.07;;
48263;SDS011;34086;51.076;13.722;2023-02-01T04:35:29;13.32;;;4.00;;
48263;SDS011;34086;51.076;13.722;2023-02-01T04:36:30;13.55;;;3.80;;
48263;SDS011;34086;51.076;13.722;2023-02-01T04:37:31;17.52;;;4.10;;
48263;SDS011;34086;51.076;13.722;2023-02-01T04:38:31;13.27;;;4.03;;
48263;SDS011;34086;51.076;13.722;2023-02-01T04:39:32;16.13;;;3.80;;
48263;SDS011;34086;51.076;13.722;2023-02-01T04:40:33;13.25;;;3.97;;
48263;SDS011;34086;51.076;13.722;2023-02-01T04:41:33;14.10;;;4.45;;
48263;SDS011;34086;51.076;13.722;2023-02-01T04:42:34;10.70;;;3.63;;
48263;SDS011;34086;51.076;13.722;2023-02-01T04:43:34;13.88;;;4.30;;
48263;SDS011;34086;51.076;13.722;2023-02-01T04:44:35;16.60;;;4.30;;
48263;SDS011;34086;51.076;13.722;2023-02-01T04:45:39;15.23;;;4.22;;
48263;SDS011;34086;51.076;13.722;2023-02-01T04:46:39;15.50;;;4.15;;
48263;SDS011;34086;51.076;13.722;2023-02-01T04:47:40;16.55;;;4.10;;
48263;SDS011;34086;51.076;13.722;2023-02-01T04:48:41;11.75;;;3.90;;
48263;SDS011;34086;51.076;13.722;2023-02-01T04:49:42;17.63;;;4.35;;
48263;SDS011;34086;51.076;13.722;2023-02-01T04:50:43;14.05;;;4.25;;
48263;SDS011;34086;51.076;13.722;2023-02-01T04:51:47;17.50;;;4.40;;
48263;SDS011;34086;51.076;13.722;2023-02-01T04:52:48;13.25;;;3.80;;
48263;SDS011;34086;51.076;13.722;2023-02-01T04:53:49;13.98;;;4.10;;
48263;SDS011;34086;51.076;13.722;2023-02-01T04:54:49;12.93;;;3.83;;
48263;SDS011;34086;51.076;13.722;2023-02-01T04:55:50;16.83;;;4.43;;
48263;SDS011;34086;51.076;13.722;2023-02-01T04:56:50;16.63;;;4.30;;
48263;SDS011;34086;51.076;13.722;2023-02-01T04:57:51;14.48;;;4.13;;
48263;SDS011;34086;51.076;13.722;2023-02-01T04:58:52;12.63;;;4.30;;
48263;SDS011;34086;51.076;13.722;2023-02-01T04:59:52;12.88;;;4.03;;
48263;SDS011;34086;51.076;13.722;2023-02-01T05:00:53;17.58;;;4.43;;
48263;SDS011;34086;51.076;13.722;2023-02-01T05:01:53;15.13;;;3.92;;
48263;SDS011;34086;51.076;13.722;2023-02-01T05:02:54;13.30;;;4.00;;
48263;SDS011;34086;51.076;13.722;2023-02-01T05:03:55;19.80;;;4.22;;
48263;SDS011;34086;51.076;13.722;2023-02-01T05:04:55;16.75;;;4.53;;
48263;SDS011;34086;51.076;13.722;2023-02-01T05:05:56;15.80;;;4.13;;
48263;SDS011;34086;51.076;13.722;2023-02-01T05:06:56;15.30;;;4.57;;
48263;SDS011;34086;51.076;13.722;2023-02-01T05:07:57;13.55;;;4.30;;
48263;SDS011;34086;51.076;13.722;2023-02-01T05:08:57;13.15;;;3.80;;
48263;SDS011;34086;51.076;13.722;2023-02-01T05:09:58;14.52;;;4.05;;
48263;SDS011;34086;51.076;13.722;2023-02-01T05:10:59;14.02;;;3.92;;
48263;SDS011;34086;51.076;13.722;2023-02-01T05:12:02;16.88;;;4.50;;
48263;SDS011;34086;51.076;13.722;2023-02-01T05:13:21;17.70;;;4.00;;
48263;SDS011;34086;51.076;13.722;2023-02-01T05:14:41;15.10;;;4.43;;
48263;SDS011;34086;51.076;13.722;2023-02-01T05:15:41;11.98;;;3.85;;
48263;SDS011;34086;51.076;13.722;2023-02-01T05:16:42;19.80;;;6.53;;
48263;SDS011;34086;51.076;13.722;2023-02-01T05:17:42;19.88;;;4.20;;
48263;SDS011;34086;51.076;13.722;2023-02-01T05:18:43;16.92;;;4.28;;
48263;SDS011;34086;51.076;13.722;2023-02-01T05:19:43;15.75;;;4.30;;
48263;SDS011;34086;51.076;13.722;2023-02-01T05:20:44;16.63;;;3.70;;
48263;SDS011;34086;51.076;13.722;2023-02-01T05:21:50;14.00;;;4.55;;
48263;SDS011;34086;51.076;13.722;2023-02-01T05:22:51;15.80;;;4.03;;
48263;SDS011;34086;51.076;13.722;2023-02-01T05:23:51;16.63;;;4.00;;
48263;SDS011;34086;51.076;13.722;2023-02-01T05:25:21;18.02;;;4.68;;
48263;SDS011;34086;51.076;13.722;2023-02-01T05:26:21;16.80;;;4.05;;
48263;SDS011;34086;51.076;13.722;2023-02-01T05:27:22;18.92;;;4.85;;
48263;SDS011;34086;51.076;13.722;2023-02-01T05:28:23;15.82;;;3.97;;
48263;SDS011;34086;51.076;13.722;2023-02-01T05:29:24;15.85;;;4.10;;
48263;SDS011;34086;51.076;13.722;2023-02-01T05:30:24;14.90;;;4.00;;
48263;SDS011;34086;51.076;13.722;2023-02-01T05:31:25;13.10;;;4.00;;
48263;SDS011;34086;51.076;13.722;2023-02-01T05:32:26;13.93;;;3.70;;
48263;SDS011;34086;51.076;13.722;2023-02-01T05:33:26;14.32;;;3.97;;
48263;SDS011;34086;51.076;13.722;2023-02-01T05:34:27;18.83;;;4.22;;
48263;SDS011;34086;51.076;13.722;2023-02-01T05:35:27;17.33;;;4.10;;
48263;SDS011;34086;51.076;13.722;2023-02-01T05:36:28;18.30;;;3.85;;
48263;SDS011;34086;51.076;13.722;2023-02-01T05:37:29;20.73;;;4.20;;
48263;SDS011;34086;51.076;13.722;2023-02-01T05:38:29;17.13;;;4.00;;
48263;SDS011;34086;51.076;13.722;2023-02-01T05:39:30;16.77;;;4.00;;
48263;SDS011;34086;51.076;13.722;2023-02-01T05:40:30;18.33;;;4.15;;
48263;SDS011;34086;51.076;13.722;2023-02-01T05:41:31;15.95;;;3.80;;
48263;SDS011;34086;51.076;13.722;2023-02-01T05:42:31;14.00;;;3.80;;
48263;SDS011;34086;51.076;13.722;2023-02-01T05:43:32;17.10;;;4.38;;
48263;SDS011;34086;51.076;13.722;2023-02-01T05:44:32;15.80;;;3.97;;
48263;SDS011;34086;51.076;13.722;2023-02-01T05:45:33;14.15;;;3.92;;
48263;SDS011;34086;51.076;13.722;2023-02-01T05:46:34;18.83;;;4.53;;
48263;SDS011;34086;51.076;13.722;2023-02-01T05:47:35;15.88;;;4.10;;
48263;SDS011;34086;51.076;13.722;2023-02-01T05:48:36;14.35;;;4.00;;
48263;SDS011;34086;51.076;13.722;2023-02-01T05:49:36;18.30;;;4.30;;
48263;SDS011;34086;51.076;13.722;2023-02-01T05:50:37;17.27;;;4.25;;
48263;SDS011;34086;51.076;13.722;2023-02-01T05:51:42;16.17;;;4.35;;
48263;SDS011;34086;51.076;13.722;2023-02-01T05:52:43;16.83;;;4.65;;
48263;SDS011;34086;51.076;13.722;2023-02-01T05:53:43;18.55;;;4.25;;
48263;SDS011;34086;51.076;13.722;2023-02-01T05:54:44;16.65;;;4.32;;
48263;SDS011;34086;51.076;13.722;2023-02-01T05:55:46;15.35;;;4.03;;
48263;SDS011;34086;51.076;13.722;2023-02-01T05:56:47;14.90;;;3.95;;
48263;SDS011;34086;51.076;13.722;2023-02-01T05:57:47;18.00;;;4.10;;
48263;SDS011;34086;51.076;13.722;2023-02-01T05:58:48;17.05;;;4.47;;
48263;SDS011;34086;51.076;13.722;2023-02-01T05:59:48;15.45;;;4.05;;
48263;SDS011;34086;51.076;13.722;2023-02-01T06:00:49;16.92;;;4.38;;
48263;SDS011;34086;51.076;13.722;2023-02-01T06:01:50;13.50;;;4.10;;
48263;SDS011;34086;51.076;13.722;2023-02-01T06:02:50;16.40;;;4.32;;
48263;SDS011;34086;51.076;13.722;2023-02-01T06:03:51;16.55;;;4.78;;
48263;SDS011;34086;51.076;13.722;2023-02-01T06:04:51;16.23;;;4.10;;
48263;SDS011;34086;51.076;13.722;2023-02-01T06:05:52;14.48;;;4.00;;
48263;SDS011;34086;51.076;13.722;2023-02-01T06:06:52;19.75;;;4.80;;
48263;SDS011;34086;51.076;13.722;2023-02-01T06:07:53;17.13;;;4.75;;
48263;SDS011;34086;51.076;13.722;2023-02-01T06:08:53;18.73;;;4.78;;
48263;SDS011;34086;51.076;13.722;2023-02-01T06:09:54;21.08;;;4.45;;
48263;SDS011;34086;51.076;13.722;2023-02-01T06:10:58;16.70;;;4.47;;
48263;SDS011;34086;51.076;13.722;2023-02-01T06:11:59;17.75;;;4.30;;
48263;SDS011;34086;51.076;13.722;2023-02-01T06:13:01;16.05;;;4.53;;
48263;SDS011;34086;51.076;13.722;2023-02-01T06:14:03;18.80;;;4.22;;
48263;SDS011;34086;51.076;13.722;2023-02-01T06:15:03;17.95;;;4.50;;
48263;SDS011;34086;51.076;13.722;2023-02-01T06:16:04;19.70;;;4.82;;
48263;SDS011;34086;51.076;13.722;2023-02-01T06:17:07;19.15;;;4.70;;
48263;SDS011;34086;51.076;13.722;2023-02-01T06:18:08;19.80;;;4.50;;
48263;SDS011;34086;51.076;13.722;2023-02-01T06:19:08;16.30;;;4.43;;
48263;SDS011;34086;51.076;13.722;2023-02-01T06:20:09;17.90;;;4.68;;
48263;SDS011;34086;51.076;13.722;2023-02-01T06:21:11;19.25;;;5.05;;
48263;SDS011;34086;51.076;13.722;2023-02-01T06:22:14;18.40;;;4.78;;
48263;SDS011;34086;51.076;13.722;2023-02-01T06:23:14;17.88;;;4.50;;
48263;SDS011;34086;51.076;13.722;2023-02-01T06:24:15;17.38;;;4.50;;
48263;SDS011;34086;51.076;13.722;2023-02-01T06:25:15;20.77;;;4.78;;
48263;SDS011;34086;51.076;13.722;2023-02-01T06:26:17;16.38;;;4.85;;
48263;SDS011;34086;51.076;13.722;2023-02-01T06:27:17;18.45;;;5.40;;
48263;SDS011;34086;51.076;13.722;2023-02-01T06:28:18;16.20;;;4.25;;
48263;SDS011;34086;51.076;13.722;2023-02-01T06:29:19;17.70;;;4.53;;
48263;SDS011;34086;51.076;13.722;2023-02-01T06:30:19;19.77;;;4.68;;
48263;SDS011;34086;51.076;13.722;2023-02-01T06:31:20;14.90;;;4.22;;
48263;SDS011;34086;51.076;13.722;2023-02-01T06:32:21;15.68;;;4.53;;